Europa — C6QK8 — position and weather

sailwx.info

Track history (hours):
 
Tides and Currents Weather Stations Pressure Air Temp Water Temp Dewpoint Dewpoint Depression Visibility Wind Speed Wind Dir Waves Ship Positions

Europa

Operator: Hapag-Lloyd Container Line

Last reported at 2019-Sep-19 09:50 UTC. Time now 2019-Sep-19 18:49 UTC.
Position N 56°16' E 017°15'.

Length 199 m; draft 6.2 m.

Type: Passenger vessel. MMSI: 308007000.

Date/timePositionNaut miles runAvg speedWind from/ knotsBaromVisibWave heightAir tempDewpointWater temp
2019-Sep-19 09:50N 56°16' E 017°15'616.7
2019-Sep-19 09:30N 56°12' E 017°07'816.5
2019-Sep-19 09:00N 56°07' E 016°56'816.6
2019-Sep-19 08:30N 56°03' E 016°44'816.7
2019-Sep-19 08:00N 55°58' E 016°31'816.6
2019-Sep-19 07:30N 55°54' E 016°18'816.6
2019-Sep-19 07:00N 55°50' E 016°05'816.5
2019-Sep-19 06:30N 55°46' E 015°53'816.8
2019-Sep-19 06:00N 55°42' E 015°40'816.8
2019-Sep-19 05:30N 55°38' E 015°26'917.3
2019-Sep-19 05:00N 55°34' E 015°13'917.3
2019-Sep-19 04:30N 55°30' E 014°60'917.5
2019-Sep-19 04:00N 55°26' E 014°46'816.8
2019-Sep-19 03:30N 55°21' E 014°34'816.7
2019-Sep-19 03:00N 55°14' E 014°25'816.7
2019-Sep-19 02:30N 55°08' E 014°16'816.7
2019-Sep-19 02:00N 55°01' E 014°06'3416.6
2019-Sep-18 23:57N 54°50' E 013°10'716.5
2019-Sep-18 23:30N 54°48' E 012°58'816.2
2019-Sep-18 23:00N 54°45' E 012°45'816.8
2019-Sep-18 22:30N 54°41' E 012°32'917.0
2019-Sep-18 22:00N 54°36' E 012°20'1316.4
2019-Sep-18 21:13N 54°25' E 012°09'416.6
2019-Sep-18 21:00N 54°24' E 012°03'817.3
2019-Sep-18 20:30N 54°24' E 011°48'917.1
2019-Sep-18 20:00N 54°28' E 011°35'917.1
2019-Sep-18 19:30N 54°32' E 011°22'918.1
2019-Sep-18 19:00N 54°35' E 011°08'917.7
2019-Sep-18 18:30N 54°35' E 010°52'816.9
2019-Sep-18 18:00N 54°34' E 010°38'816.5
2019-Sep-18 17:30N 54°31' E 010°24'713.6
2019-Sep-18 17:00N 54°27' E 010°15'611.5
2019-Sep-18 16:31N 54°22' E 010°11'2 4.9
2019-Sep-18 16:01N 54°20' E 010°09'0 0.0
2019-Sep-18 15:28N 54°20' E 010°09'0 0.0
2019-Sep-18 14:58N 54°20' E 010°09'0 0.0
2019-Sep-18 14:28N 54°20' E 010°09'0 0.0
2019-Sep-18 13:58N 54°20' E 010°09'0 0.0
2019-Sep-18 13:28N 54°20' E 010°09'0 0.0
2019-Sep-18 12:58N 54°20' E 010°09'0 0.0
2019-Sep-18 12:28N 54°20' E 010°09'0 0.0
2019-Sep-18 11:58N 54°20' E 010°09'0 0.0
2019-Sep-18 11:28N 54°20' E 010°09'0 0.0
2019-Sep-18 10:58N 54°20' E 010°09'0 0.0
2019-Sep-18 10:28N 54°20' E 010°09'0 0.0
2019-Sep-18 09:58N 54°20' E 010°09'0 0.0
2019-Sep-18 09:28N 54°20' E 010°09'0 0.0
2019-Sep-18 08:58N 54°20' E 010°09'0 0.0
2019-Sep-18 08:28N 54°20' E 010°09'0 0.0
2019-Sep-18 08:01N 54°20' E 010°09'0 0.0
2019-Sep-18 07:31N 54°20' E 010°09'0 0.0
2019-Sep-18 07:01N 54°20' E 010°09'0 0.0
2019-Sep-18 06:31N 54°20' E 010°09'0 0.0
2019-Sep-18 06:01N 54°20' E 010°09'0 0.0
2019-Sep-18 05:30N 54°20' E 010°09'0 0.0
2019-Sep-18 05:01N 54°20' E 010°09'0 0.1
2019-Sep-18 04:31N 54°20' E 010°09'1 1.9
2019-Sep-18 04:01N 54°20' E 010°10'5 9.6
2019-Sep-18 03:31N 54°25' E 010°12'612.7
2019-Sep-18 03:00N 54°30' E 010°19'815.9
2019-Sep-18 02:30N 54°33' E 010°31'816.1
2019-Sep-18 02:00N 54°35' E 010°45'815.9
2019-Sep-18 01:30N 54°36' E 010°59'815.5
2019-Sep-18 01:00N 54°36' E 011°12'815.9
2019-Sep-18 00:30N 54°32' E 011°24'815.8
2019-Sep-18 00:00N 54°29' E 011°37'611.9
2019-Sep-17 23:30N 54°26' E 011°46'612.4
2019-Sep-17 23:00N 54°26' E 011°56'612.6
2019-Sep-17 22:30N 54°26' E 012°08'713.6
2019-Sep-17 21:58N 54°33' E 012°13'3113.6
2019-Sep-17 19:42N 54°59' E 012°41'313.5
2019-Sep-17 19:30N 55°01' E 012°41'713.6
2019-Sep-17 19:01N 55°08' E 012°39'713.8
2019-Sep-17 18:30N 55°15' E 012°38'713.4
2019-Sep-17 18:00N 55°22' E 012°38'713.4
2019-Sep-17 17:30N 55°28' E 012°41'713.2
2019-Sep-17 17:00N 55°35' E 012°42'714.7
2019-Sep-17 16:30N 55°42' E 012°41'3 5.5
2019-Sep-17 16:00N 55°42' E 012°36'0 0.8
2019-Sep-17 15:30N 55°41' E 012°36'0 0.0
2019-Sep-17 15:00N 55°41' E 012°36'0 0.0
2019-Sep-17 14:30N 55°41' E 012°36'0 0.0
2019-Sep-17 14:00N 55°41' E 012°36'0 0.0
2019-Sep-17 13:30N 55°41' E 012°36'0 0.0
2019-Sep-17 13:00N 55°41' E 012°36'0 0.0
2019-Sep-17 12:30N 55°41' E 012°36'0 0.0
2019-Sep-17 12:00N 55°41' E 012°36'0 0.0
2019-Sep-17 11:30N 55°41' E 012°36'0 0.0
2019-Sep-17 11:00N 55°41' E 012°36'0 0.0
2019-Sep-17 10:30N 55°41' E 012°36'0 0.0
2019-Sep-17 10:01N 55°41' E 012°36'1 1.5
2019-Sep-17 09:31N 55°42' E 012°36'611.9
2019-Sep-17 09:00N 55°47' E 012°43'4 8.9
2019-Sep-17 08:30N 55°51' E 012°41'510.7
2019-Sep-17 08:01N 55°56' E 012°40'510.7
2019-Sep-17 07:31N 56°02' E 012°39'611.9
2019-Sep-17 07:00N 56°06' E 012°32'612.9
2019-Sep-17 06:30N 56°10' E 012°23'4011.9
2019-Sep-17 03:07N 56°46' E 011°51'317.6
2019-Sep-17 02:57N 56°49' E 011°48'817.8
2019-Sep-17 02:30N 56°56' E 011°43'917.5
2019-Sep-17 02:00N 57°05' E 011°37'917.4
2019-Sep-17 01:30N 57°13' E 011°32'917.6
2019-Sep-17 01:00N 57°21' E 011°27'917.4
2019-Sep-17 00:31N 57°29' E 011°22'917.3
2019-Sep-17 00:01N 57°38' E 011°18'917.6
2019-Sep-16 23:30N 57°46' E 011°14'917.2
2019-Sep-16 23:00N 57°54' E 011°09'816.4
2019-Sep-16 22:31N 58°02' E 011°06'816.2
2019-Sep-16 22:00N 58°10' E 011°02'815.8
2019-Sep-16 21:30N 58°18' E 010°58'815.6
2019-Sep-16 21:00N 58°25' E 010°54'815.8
2019-Sep-16 20:30N 58°33' E 010°50'816.5
2019-Sep-16 20:00N 58°41' E 010°46'816.7
2019-Sep-16 19:30N 58°49' E 010°42'816.8
2019-Sep-16 19:00N 58°57' E 010°39'816.6
2019-Sep-16 18:30N 59°05' E 010°35'613.0
2019-Sep-16 18:00N 59°12' E 010°38'918.0
2019-Sep-16 17:30N 59°21' E 010°35'917.7
2019-Sep-16 17:00N 59°29' E 010°34'917.1
2019-Sep-16 16:30N 59°38' E 010°37'612.4
2019-Sep-16 16:01N 59°44' E 010°34'714.2
2019-Sep-16 15:30N 59°51' E 010°36'510.9
2019-Sep-16 15:00N 59°54' E 010°44'0 0.1
2019-Sep-16 14:29N 59°54' E 010°44'0 0.0
2019-Sep-16 13:59N 59°54' E 010°44'0 0.0
2019-Sep-16 13:29N 59°54' E 010°44'0 0.0
2019-Sep-16 12:59N 59°54' E 010°44'0 0.0
2019-Sep-16 12:29N 59°54' E 010°44'0 0.0
2019-Sep-16 11:59N 59°54' E 010°44'0 0.0
2019-Sep-16 11:29N 59°54' E 010°44'0 0.0
2019-Sep-16 10:59N 59°54' E 010°44'0 0.0
2019-Sep-16 10:29N 59°54' E 010°44'0 0.0
2019-Sep-16 09:59N 59°54' E 010°44'0 0.0
2019-Sep-16 09:29N 59°54' E 010°44'0 0.0
2019-Sep-16 08:59N 59°54' E 010°44'0 0.0
2019-Sep-16 08:29N 59°54' E 010°44'0 0.0
2019-Sep-16 07:59N 59°54' E 010°44'0 0.0
2019-Sep-16 07:29N 59°54' E 010°44'0 0.0
2019-Sep-16 06:59N 59°54' E 010°44'0 0.0
2019-Sep-16 06:29N 59°54' E 010°44'0 0.0
2019-Sep-16 05:59N 59°54' E 010°44'0 0.1
2019-Sep-16 05:31N 59°54' E 010°44'3 6.1
2019-Sep-16 05:00N 59°53' E 010°39'611.4
2019-Sep-16 04:30N 59°47' E 010°34'612.6
2019-Sep-16 04:00N 59°41' E 010°36'713.5
2019-Sep-16 03:30N 59°35' E 010°38'816.0
2019-Sep-16 03:00N 59°27' E 010°34'815.8
2019-Sep-16 02:30N 59°19' E 010°36'815.9
2019-Sep-16 02:00N 59°11' E 010°39'714.3
2019-Sep-16 01:31N 59°05' E 010°33'5 9.7
2019-Sep-16 01:01N 58°60' E 010°33'510.0
2019-Sep-16 00:30N 58°56' E 010°28'611.1
2019-Sep-16 00:01N 58°51' E 010°22'611.3
2019-Sep-15 23:31N 58°46' E 010°15'611.2
2019-Sep-15 23:00N 58°43' E 010°08'611.4
2019-Sep-15 22:30N 58°38' E 009°60'611.4
2019-Sep-15 22:00N 58°35' E 009°52'611.0
2019-Sep-15 21:30N 58°31' E 009°45'610.9
2019-Sep-15 21:00N 58°27' E 009°37'510.6
2019-Sep-15 20:30N 58°25' E 009°28'611.0
2019-Sep-15 20:00N 58°23' E 009°18'612.0
2019-Sep-15 19:30N 58°21' E 009°07'611.8
2019-Sep-15 19:00N 58°17' E 008°58'611.7
2019-Sep-15 18:31N 58°12' E 008°55'714.7
2019-Sep-15 18:01N 58°05' E 008°51'815.3
2019-Sep-15 17:30N 57°57' E 008°48'815.3
2019-Sep-15 17:00N 57°50' E 008°44'815.6
2019-Sep-15 16:30N 57°42' E 008°41'816.3
2019-Sep-15 16:00N 57°34' E 008°37'816.3
2019-Sep-15 15:31N 57°26' E 008°33'816.1
2019-Sep-15 15:00N 57°19' E 008°30'816.1
2019-Sep-15 14:30N 57°11' E 008°22'816.2
2019-Sep-15 14:01N 57°04' E 008°17'13915.3
2019-Sep-15 04:56N 54°47' E 007°44'3016.8
2019-Sep-15 03:11N 54°18' E 007°58'1117.0
2019-Sep-15 02:32N 54°08' E 008°02'117.1
2019-Sep-15 02:27N 54°06' E 008°02'714.6
2019-Sep-15 02:01N 54°01' E 008°09'713.8
2019-Sep-15 01:30N 53°60' E 008°20'816.9
2019-Sep-15 01:00N 53°58' E 008°35'714.9
2019-Sep-15 00:30N 53°53' E 008°43'510.7
2019-Sep-15 00:00N 53°50' E 008°52'612.8
2019-Sep-14 23:30N 53°52' E 009°02'510.9
2019-Sep-14 23:00N 53°53' E 009°11'611.9
2019-Sep-14 22:30N 53°50' E 009°20'713.4
2019-Sep-14 22:00N 53°44' E 009°26'713.8
2019-Sep-14 21:31N 53°39' E 009°31'714.1
2019-Sep-14 21:00N 53°34' E 009°41'4 8.7
2019-Sep-14 20:30N 53°33' E 009°48'4 7.5
2019-Sep-14 20:00N 53°33' E 009°54'2 4.1
2019-Sep-14 19:30N 53°33' E 009°58'1 1.8
2019-Sep-14 19:00N 53°32' E 009°59'0 0.3
2019-Sep-14 18:30N 53°32' E 009°59'0 0.4
2019-Sep-14 17:59N 53°33' E 009°59'0 0.0
2019-Sep-14 17:29N 53°33' E 009°59'0 0.0
2019-Sep-14 16:59N 53°33' E 009°59'0 0.0
2019-Sep-14 16:29N 53°33' E 009°59'0 0.0
2019-Sep-14 15:59N 53°33' E 009°59'0 0.0
2019-Sep-14 15:29N 53°33' E 009°59'0 0.0
2019-Sep-14 14:59N 53°33' E 009°59'0 0.0
2019-Sep-14 14:29N 53°33' E 009°59'0 0.0
2019-Sep-14 13:59N 53°33' E 009°59'0 0.0
2019-Sep-14 13:29N 53°33' E 009°59'0 0.0
2019-Sep-14 12:59N 53°33' E 009°59'0 0.0
2019-Sep-14 12:29N 53°33' E 009°59'0 0.0
2019-Sep-14 11:59N 53°33' E 009°59'0 0.0
2019-Sep-14 11:29N 53°33' E 009°59'0 0.0
2019-Sep-14 10:59N 53°33' E 009°59'0 0.0
2019-Sep-14 10:29N 53°33' E 009°59'0 0.0
2019-Sep-14 09:59N 53°33' E 009°59'0 0.0
2019-Sep-14 09:29N 53°33' E 009°59'0 0.0
2019-Sep-14 08:59N 53°33' E 009°59'0 0.0
2019-Sep-14 08:29N 53°33' E 009°59'0 0.0
2019-Sep-14 07:59N 53°33' E 009°59'0 0.0
2019-Sep-14 07:26N 53°33' E 009°59'0 0.0
2019-Sep-14 06:59N 53°33' E 009°59'0 0.0
2019-Sep-14 06:29N 53°33' E 009°59'0 0.0
2019-Sep-14 05:59N 53°33' E 009°59'0 0.0
2019-Sep-14 05:29N 53°33' E 009°59'0 0.0
2019-Sep-14 04:59N 53°33' E 009°59'0 0.0
2019-Sep-14 04:29N 53°33' E 009°59'0 0.0
2019-Sep-14 03:59N 53°33' E 009°59'0 0.0
2019-Sep-14 03:31N 53°33' E 009°59'1 1.1
2019-Sep-14 03:01N 53°33' E 009°58'4 9.0
2019-Sep-14 02:31N 53°33' E 009°50'4 8.9
2019-Sep-14 02:00N 53°34' E 009°43'5 9.4
2019-Sep-14 01:30N 53°36' E 009°36'5 9.6
2019-Sep-14 01:01N 53°40' E 009°31'3 5.9
2019-Sep-14 00:31N 53°43' E 009°29'4 7.6
2019-Sep-14 00:01N 53°45' E 009°24'4 9.0
2019-Sep-13 23:31N 53°49' E 009°22'5 9.9
2019-Sep-13 23:01N 53°52' E 009°15'4 8.1
2019-Sep-13 22:30N 53°53' E 009°08'0 0.4
2019-Sep-13 22:01N 53°54' E 009°09'1 2.3
2019-Sep-13 21:31N 53°54' E 009°10'2 4.4
2019-Sep-13 21:01N 53°56' E 009°13'4 8.3
2019-Sep-13 20:31N 53°59' E 009°17'4 8.4
2019-Sep-13 20:00N 54°03' E 009°18'4 8.5
2019-Sep-13 19:30N 54°08' E 009°20'4 8.2
2019-Sep-13 19:01N 54°10' E 009°25'4 8.3
2019-Sep-13 18:30N 54°12' E 009°32'4 8.1
2019-Sep-13 18:01N 54°14' E 009°37'3 6.2
2019-Sep-13 17:31N 54°17' E 009°39'3 6.8
2019-Sep-13 17:01N 54°20' E 009°43'4 8.1
2019-Sep-13 16:31N 54°22' E 009°49'3 6.2
2019-Sep-13 16:00N 54°21' E 009°54'3 6.5
2019-Sep-13 15:30N 54°21' E 009°60'4 7.6
2019-Sep-13 15:00N 54°22' E 010°06'2 3.1
2019-Sep-13 14:31N 54°22' E 010°08'0 0.1
2019-Sep-13 14:01N 54°22' E 010°08'1 1.3
2019-Sep-13 13:31N 54°22' E 010°10'1 2.4
2019-Sep-13 13:00N 54°23' E 010°11'0 0.0
2019-Sep-13 12:30N 54°23' E 010°11'0 0.0
2019-Sep-13 12:00N 54°23' E 010°11'0 0.0
2019-Sep-13 11:30N 54°23' E 010°11'0 0.0
2019-Sep-13 11:00N 54°23' E 010°11'0 0.0
2019-Sep-13 10:30N 54°23' E 010°11'0 0.0
2019-Sep-13 10:00N 54°23' E 010°11'0 0.0
2019-Sep-13 09:30N 54°23' E 010°11'0 0.0
2019-Sep-13 09:00N 54°23' E 010°11'0 0.1
2019-Sep-13 08:30N 54°23' E 010°11'0 0.0
2019-Sep-13 08:00N 54°23' E 010°11'0 0.1
2019-Sep-13 07:30N 54°23' E 010°11'612.7
2019-Sep-13 07:01N 54°28' E 010°15'5 9.9
2019-Sep-13 06:30N 54°31' E 010°22'612.1
2019-Sep-13 06:00N 54°34' E 010°32'611.9
2019-Sep-13 05:31N 54°35' E 010°42'815.0
2019-Sep-13 05:00N 54°35' E 010°55'816.6
2019-Sep-13 04:30N 54°36' E 011°09'817.0
2019-Sep-13 04:00N 54°33' E 011°23'917.7
2019-Sep-13 03:30N 54°29' E 011°36'917.9
2019-Sep-13 03:00N 54°26' E 011°51'917.6
2019-Sep-13 02:30N 54°27' E 012°06'3016.8
2019-Sep-13 00:44N 54°48' E 012°43'1218.2
2019-Sep-13 00:05N 54°47' E 013°04'118.3
2019-Sep-13 00:00N 54°47' E 013°06'918.1
2019-Sep-12 23:30N 54°46' E 013°22'1418.5
2019-Sep-12 22:45N 54°44' E 013°46'2118.4
2019-Sep-12 21:35N 54°38' E 014°21'1218.3
2019-Sep-12 20:55N 54°39' E 014°42'2018.5
2019-Sep-12 19:51N 54°43' E 015°16'1518.6
2019-Sep-12 19:02N 54°45' E 015°42'018.7
2019-Sep-12 19:00N 54°46' E 015°43'7018.1
2019-Sep-12 15:08N 54°57' E 017°43'1217.6
2019-Sep-12 14:26N 54°57' E 018°04'917.7
2019-Sep-12 13:54N 54°57' E 018°21'717.8
2019-Sep-12 13:30N 54°56' E 018°33'917.8
2019-Sep-12 13:00N 54°51' E 018°46'918.2
2019-Sep-12 12:30N 54°45' E 018°58'917.5
2019-Sep-12 12:00N 54°37' E 018°55'1019.0
2019-Sep-12 11:30N 54°29' E 018°45'510.9
2019-Sep-12 11:00N 54°25' E 018°39'1 1.3
2019-Sep-12 10:29N 54°24' E 018°40'0 0.0
2019-Sep-12 09:56N 54°24' E 018°40'0 0.0
2019-Sep-12 09:29N 54°24' E 018°40'0 0.0
2019-Sep-12 08:59N 54°24' E 018°40'0 0.0
2019-Sep-12 08:29N 54°24' E 018°40'0 0.0
2019-Sep-12 07:59N 54°24' E 018°40'0 0.0
2019-Sep-12 07:29N 54°24' E 018°40'0 0.0
2019-Sep-12 06:59N 54°24' E 018°40'0 0.0
2019-Sep-12 06:29N 54°24' E 018°40'0 0.0
2019-Sep-12 05:59N 54°24' E 018°40'0 0.0
2019-Sep-12 05:29N 54°24' E 018°40'0 0.0
2019-Sep-12 04:59N 54°24' E 018°40'0 0.0
2019-Sep-12 04:29N 54°24' E 018°40'0 0.0
2019-Sep-12 03:59N 54°24' E 018°40'0 0.0
2019-Sep-12 03:29N 54°24' E 018°40'0 0.0
2019-Sep-12 02:59N 54°24' E 018°40'0 0.0
2019-Sep-12 02:29N 54°24' E 018°40'0 0.0
2019-Sep-12 01:59N 54°24' E 018°40'0 0.0
2019-Sep-12 01:26N 54°24' E 018°40'0 0.0
2019-Sep-12 00:59N 54°24' E 018°40'0 0.0
2019-Sep-12 00:29N 54°24' E 018°40'0 0.0
2019-Sep-11 23:59N 54°24' E 018°40'0 0.0
2019-Sep-11 23:29N 54°24' E 018°40'0 0.0
2019-Sep-11 22:59N 54°24' E 018°40'0 0.0
2019-Sep-11 22:29N 54°24' E 018°40'0 0.0
2019-Sep-11 21:59N 54°24' E 018°40'0 0.0
2019-Sep-11 21:29N 54°24' E 018°40'0 0.0
2019-Sep-11 20:59N 54°24' E 018°40'0 0.0
2019-Sep-11 20:29N 54°24' E 018°40'0 0.0
2019-Sep-11 19:59N 54°24' E 018°40'0 0.0
2019-Sep-11 19:29N 54°24' E 018°40'0 0.0
2019-Sep-11 18:56N 54°24' E 018°40'0 0.0
2019-Sep-11 18:29N 54°24' E 018°40'0 0.0
2019-Sep-11 17:59N 54°24' E 018°40'0 0.0
2019-Sep-11 17:29N 54°24' E 018°40'0 0.0
2019-Sep-11 16:59N 54°24' E 018°40'0 0.0
2019-Sep-11 16:29N 54°24' E 018°40'0 0.0
2019-Sep-11 15:59N 54°24' E 018°40'0 0.0
2019-Sep-11 15:29N 54°24' E 018°40'0 0.0
2019-Sep-11 14:59N 54°24' E 018°40'0 0.0
2019-Sep-11 14:29N 54°24' E 018°40'0 0.0
2019-Sep-11 13:59N 54°24' E 018°40'0 0.0
2019-Sep-11 13:29N 54°24' E 018°40'0 0.0
2019-Sep-11 13:00N 54°24' E 018°40'2 3.1
2019-Sep-11 12:30N 54°26' E 018°39'4 8.0
2019-Sep-11 12:01N 54°29' E 018°43'918.2
2019-Sep-11 11:31N 54°36' E 018°53'1019.3
2019-Sep-11 11:01N 54°45' E 018°60'918.7
2019-Sep-11 10:31N 54°53' E 019°06'918.4
2019-Sep-11 10:00N 55°02' E 019°13'917.9
2019-Sep-11 09:30N 55°10' E 019°19'16714.5
2019-Sep-10 21:59N 57°40' E 021°32'94 6.1
2019-Sep-10 06:46N 56°57' E 024°06'4 1.9
2019-Sep-10 04:45N 57°01' E 024°05'2 8.2
2019-Sep-10 04:30N 57°03' E 024°04'612.7
2019-Sep-10 04:00N 57°07' E 023°55'815.7
2019-Sep-10 03:28N 57°13' E 023°44'3716.4
2019-Sep-10 01:13N 57°40' E 022°57'416.4
2019-Sep-10 00:58N 57°43' E 022°52'6912.1
2019-Sep-09 19:17N 58°34' E 021°24'617.1
2019-Sep-09 18:56N 58°40' E 021°27'917.0
2019-Sep-09 18:24N 58°49' E 021°30'1816.6
2019-Sep-09 17:17N 59°07' E 021°38'1417.0
2019-Sep-09 16:29N 59°15' E 021°59'1717.1
2019-Sep-09 15:28N 59°19' E 022°32'817.0
2019-Sep-09 15:00N 59°20' E 022°47'1017.1
2019-Sep-09 14:26N 59°22' E 023°06'717.0
2019-Sep-09 14:00N 59°24' E 023°19'816.8
2019-Sep-09 13:30N 59°26' E 023°36'816.9
2019-Sep-09 13:00N 59°27' E 023°52'917.1
2019-Sep-09 12:30N 59°29' E 024°08'817.0
2019-Sep-09 12:00N 59°30' E 024°25'714.6
2019-Sep-09 11:31N 59°31' E 024°39'510.8
2019-Sep-09 11:01N 59°27' E 024°46'0 0.7
2019-Sep-09 10:30N 59°27' E 024°46'0 0.0
2019-Sep-09 10:00N 59°27' E 024°46'  
Track history (hours):
 
Tides and Currents Weather Stations Pressure Air Temp Water Temp Dewpoint Dewpoint Depression Visibility Wind Speed Wind Dir Waves Ship Positions

Europa

Operator: Hapag-Lloyd Container Line

Last reported at 2019-Sep-19 09:50 UTC. Time now 2019-Sep-19 18:49 UTC.
Position N 56°16' E 017°15'.

Length 199 m; draft 6.2 m.

Type: Passenger vessel. MMSI: 308007000.

Date/timePositionNaut miles runAvg speedWind from/ knotsBaromVisibWave heightAir tempDewpointWater temp
2019-Sep-19 09:50N 56°16' E 017°15'616.7
2019-Sep-19 09:30N 56°12' E 017°07'816.5
2019-Sep-19 09:00N 56°07' E 016°56'816.6
2019-Sep-19 08:30N 56°03' E 016°44'816.7
2019-Sep-19 08:00N 55°58' E 016°31'816.6
2019-Sep-19 07:30N 55°54' E 016°18'816.6
2019-Sep-19 07:00N 55°50' E 016°05'816.5
2019-Sep-19 06:30N 55°46' E 015°53'816.8
2019-Sep-19 06:00N 55°42' E 015°40'816.8
2019-Sep-19 05:30N 55°38' E 015°26'917.3
2019-Sep-19 05:00N 55°34' E 015°13'917.3
2019-Sep-19 04:30N 55°30' E 014°60'917.5
2019-Sep-19 04:00N 55°26' E 014°46'816.8
2019-Sep-19 03:30N 55°21' E 014°34'816.7
2019-Sep-19 03:00N 55°14' E 014°25'816.7
2019-Sep-19 02:30N 55°08' E 014°16'816.7
2019-Sep-19 02:00N 55°01' E 014°06'3416.6
2019-Sep-18 23:57N 54°50' E 013°10'716.5
2019-Sep-18 23:30N 54°48' E 012°58'816.2
2019-Sep-18 23:00N 54°45' E 012°45'816.8
2019-Sep-18 22:30N 54°41' E 012°32'917.0
2019-Sep-18 22:00N 54°36' E 012°20'1316.4
2019-Sep-18 21:13N 54°25' E 012°09'416.6
2019-Sep-18 21:00N 54°24' E 012°03'817.3
2019-Sep-18 20:30N 54°24' E 011°48'917.1
2019-Sep-18 20:00N 54°28' E 011°35'917.1
2019-Sep-18 19:30N 54°32' E 011°22'918.1
2019-Sep-18 19:00N 54°35' E 011°08'917.7
2019-Sep-18 18:30N 54°35' E 010°52'816.9
2019-Sep-18 18:00N 54°34' E 010°38'816.5
2019-Sep-18 17:30N 54°31' E 010°24'713.6
2019-Sep-18 17:00N 54°27' E 010°15'611.5
2019-Sep-18 16:31N 54°22' E 010°11'2 4.9
2019-Sep-18 16:01N 54°20' E 010°09'0 0.0
2019-Sep-18 15:28N 54°20' E 010°09'0 0.0
2019-Sep-18 14:58N 54°20' E 010°09'0 0.0
2019-Sep-18 14:28N 54°20' E 010°09'0 0.0
2019-Sep-18 13:58N 54°20' E 010°09'0 0.0
2019-Sep-18 13:28N 54°20' E 010°09'0 0.0
2019-Sep-18 12:58N 54°20' E 010°09'0 0.0
2019-Sep-18 12:28N 54°20' E 010°09'0 0.0
2019-Sep-18 11:58N 54°20' E 010°09'0 0.0
2019-Sep-18 11:28N 54°20' E 010°09'0 0.0
2019-Sep-18 10:58N 54°20' E 010°09'0 0.0
2019-Sep-18 10:28N 54°20' E 010°09'0 0.0
2019-Sep-18 09:58N 54°20' E 010°09'0 0.0
2019-Sep-18 09:28N 54°20' E 010°09'0 0.0
2019-Sep-18 08:58N 54°20' E 010°09'0 0.0
2019-Sep-18 08:28N 54°20' E 010°09'0 0.0
2019-Sep-18 08:01N 54°20' E 010°09'0 0.0
2019-Sep-18 07:31N 54°20' E 010°09'0 0.0
2019-Sep-18 07:01N 54°20' E 010°09'0 0.0
2019-Sep-18 06:31N 54°20' E 010°09'0 0.0
2019-Sep-18 06:01N 54°20' E 010°09'0 0.0
2019-Sep-18 05:30N 54°20' E 010°09'0 0.0
2019-Sep-18 05:01N 54°20' E 010°09'0 0.1
2019-Sep-18 04:31N 54°20' E 010°09'1 1.9
2019-Sep-18 04:01N 54°20' E 010°10'5 9.6
2019-Sep-18 03:31N 54°25' E 010°12'612.7
2019-Sep-18 03:00N 54°30' E 010°19'815.9
2019-Sep-18 02:30N 54°33' E 010°31'816.1
2019-Sep-18 02:00N 54°35' E 010°45'815.9
2019-Sep-18 01:30N 54°36' E 010°59'815.5
2019-Sep-18 01:00N 54°36' E 011°12'815.9
2019-Sep-18 00:30N 54°32' E 011°24'815.8
2019-Sep-18 00:00N 54°29' E 011°37'611.9
2019-Sep-17 23:30N 54°26' E 011°46'612.4
2019-Sep-17 23:00N 54°26' E 011°56'612.6
2019-Sep-17 22:30N 54°26' E 012°08'713.6
2019-Sep-17 21:58N 54°33' E 012°13'3113.6
2019-Sep-17 19:42N 54°59' E 012°41'313.5
2019-Sep-17 19:30N 55°01' E 012°41'713.6
2019-Sep-17 19:01N 55°08' E 012°39'713.8
2019-Sep-17 18:30N 55°15' E 012°38'713.4
2019-Sep-17 18:00N 55°22' E 012°38'713.4
2019-Sep-17 17:30N 55°28' E 012°41'713.2
2019-Sep-17 17:00N 55°35' E 012°42'714.7
2019-Sep-17 16:30N 55°42' E 012°41'3 5.5
2019-Sep-17 16:00N 55°42' E 012°36'0 0.8
2019-Sep-17 15:30N 55°41' E 012°36'0 0.0
2019-Sep-17 15:00N 55°41' E 012°36'0 0.0
2019-Sep-17 14:30N 55°41' E 012°36'0 0.0
2019-Sep-17 14:00N 55°41' E 012°36'0 0.0
2019-Sep-17 13:30N 55°41' E 012°36'0 0.0
2019-Sep-17 13:00N 55°41' E 012°36'0 0.0
2019-Sep-17 12:30N 55°41' E 012°36'0 0.0
2019-Sep-17 12:00N 55°41' E 012°36'0 0.0
2019-Sep-17 11:30N 55°41' E 012°36'0 0.0
2019-Sep-17 11:00N 55°41' E 012°36'0 0.0
2019-Sep-17 10:30N 55°41' E 012°36'0 0.0
2019-Sep-17 10:01N 55°41' E 012°36'1 1.5
2019-Sep-17 09:31N 55°42' E 012°36'611.9
2019-Sep-17 09:00N 55°47' E 012°43'4 8.9
2019-Sep-17 08:30N 55°51' E 012°41'510.7
2019-Sep-17 08:01N 55°56' E 012°40'510.7
2019-Sep-17 07:31N 56°02' E 012°39'611.9
2019-Sep-17 07:00N 56°06' E 012°32'612.9
2019-Sep-17 06:30N 56°10' E 012°23'4011.9
2019-Sep-17 03:07N 56°46' E 011°51'317.6
2019-Sep-17 02:57N 56°49' E 011°48'817.8
2019-Sep-17 02:30N 56°56' E 011°43'917.5
2019-Sep-17 02:00N 57°05' E 011°37'917.4
2019-Sep-17 01:30N 57°13' E 011°32'917.6
2019-Sep-17 01:00N 57°21' E 011°27'917.4
2019-Sep-17 00:31N 57°29' E 011°22'917.3
2019-Sep-17 00:01N 57°38' E 011°18'917.6
2019-Sep-16 23:30N 57°46' E 011°14'917.2
2019-Sep-16 23:00N 57°54' E 011°09'816.4
2019-Sep-16 22:31N 58°02' E 011°06'816.2
2019-Sep-16 22:00N 58°10' E 011°02'815.8
2019-Sep-16 21:30N 58°18' E 010°58'815.6
2019-Sep-16 21:00N 58°25' E 010°54'815.8
2019-Sep-16 20:30N 58°33' E 010°50'816.5
2019-Sep-16 20:00N 58°41' E 010°46'816.7
2019-Sep-16 19:30N 58°49' E 010°42'816.8
2019-Sep-16 19:00N 58°57' E 010°39'816.6
2019-Sep-16 18:30N 59°05' E 010°35'613.0
2019-Sep-16 18:00N 59°12' E 010°38'918.0
2019-Sep-16 17:30N 59°21' E 010°35'917.7
2019-Sep-16 17:00N 59°29' E 010°34'917.1
2019-Sep-16 16:30N 59°38' E 010°37'612.4
2019-Sep-16 16:01N 59°44' E 010°34'714.2
2019-Sep-16 15:30N 59°51' E 010°36'510.9
2019-Sep-16 15:00N 59°54' E 010°44'0 0.1
2019-Sep-16 14:29N 59°54' E 010°44'0 0.0
2019-Sep-16 13:59N 59°54' E 010°44'0 0.0
2019-Sep-16 13:29N 59°54' E 010°44'0 0.0
2019-Sep-16 12:59N 59°54' E 010°44'0 0.0
2019-Sep-16 12:29N 59°54' E 010°44'0 0.0
2019-Sep-16 11:59N 59°54' E 010°44'0 0.0
2019-Sep-16 11:29N 59°54' E 010°44'0 0.0
2019-Sep-16 10:59N 59°54' E 010°44'0 0.0
2019-Sep-16 10:29N 59°54' E 010°44'0 0.0
2019-Sep-16 09:59N 59°54' E 010°44'0 0.0
2019-Sep-16 09:29N 59°54' E 010°44'0 0.0
2019-Sep-16 08:59N 59°54' E 010°44'0 0.0
2019-Sep-16 08:29N 59°54' E 010°44'0 0.0
2019-Sep-16 07:59N 59°54' E 010°44'0 0.0
2019-Sep-16 07:29N 59°54' E 010°44'0 0.0
2019-Sep-16 06:59N 59°54' E 010°44'0 0.0
2019-Sep-16 06:29N 59°54' E 010°44'0 0.0
2019-Sep-16 05:59N 59°54' E 010°44'0 0.1
2019-Sep-16 05:31N 59°54' E 010°44'3 6.1
2019-Sep-16 05:00N 59°53' E 010°39'611.4
2019-Sep-16 04:30N 59°47' E 010°34'612.6
2019-Sep-16 04:00N 59°41' E 010°36'713.5
2019-Sep-16 03:30N 59°35' E 010°38'816.0
2019-Sep-16 03:00N 59°27' E 010°34'815.8
2019-Sep-16 02:30N 59°19' E 010°36'815.9
2019-Sep-16 02:00N 59°11' E 010°39'714.3
2019-Sep-16 01:31N 59°05' E 010°33'5 9.7
2019-Sep-16 01:01N 58°60' E 010°33'510.0
2019-Sep-16 00:30N 58°56' E 010°28'611.1
2019-Sep-16 00:01N 58°51' E 010°22'611.3
2019-Sep-15 23:31N 58°46' E 010°15'611.2
2019-Sep-15 23:00N 58°43' E 010°08'611.4
2019-Sep-15 22:30N 58°38' E 009°60'611.4
2019-Sep-15 22:00N 58°35' E 009°52'611.0
2019-Sep-15 21:30N 58°31' E 009°45'610.9
2019-Sep-15 21:00N 58°27' E 009°37'510.6
2019-Sep-15 20:30N 58°25' E 009°28'611.0
2019-Sep-15 20:00N 58°23' E 009°18'612.0
2019-Sep-15 19:30N 58°21' E 009°07'611.8
2019-Sep-15 19:00N 58°17' E 008°58'611.7
2019-Sep-15 18:31N 58°12' E 008°55'714.7
2019-Sep-15 18:01N 58°05' E 008°51'815.3
2019-Sep-15 17:30N 57°57' E 008°48'815.3
2019-Sep-15 17:00N 57°50' E 008°44'815.6
2019-Sep-15 16:30N 57°42' E 008°41'816.3
2019-Sep-15 16:00N 57°34' E 008°37'816.3
2019-Sep-15 15:31N 57°26' E 008°33'816.1
2019-Sep-15 15:00N 57°19' E 008°30'816.1
2019-Sep-15 14:30N 57°11' E 008°22'816.2
2019-Sep-15 14:01N 57°04' E 008°17'13915.3
2019-Sep-15 04:56N 54°47' E 007°44'3016.8
2019-Sep-15 03:11N 54°18' E 007°58'1117.0
2019-Sep-15 02:32N 54°08' E 008°02'117.1
2019-Sep-15 02:27N 54°06' E 008°02'714.6
2019-Sep-15 02:01N 54°01' E 008°09'713.8
2019-Sep-15 01:30N 53°60' E 008°20'816.9
2019-Sep-15 01:00N 53°58' E 008°35'714.9
2019-Sep-15 00:30N 53°53' E 008°43'510.7
2019-Sep-15 00:00N 53°50' E 008°52'612.8
2019-Sep-14 23:30N 53°52' E 009°02'510.9
2019-Sep-14 23:00N 53°53' E 009°11'611.9
2019-Sep-14 22:30N 53°50' E 009°20'713.4
2019-Sep-14 22:00N 53°44' E 009°26'713.8
2019-Sep-14 21:31N 53°39' E 009°31'714.1
2019-Sep-14 21:00N 53°34' E 009°41'4 8.7
2019-Sep-14 20:30N 53°33' E 009°48'4 7.5
2019-Sep-14 20:00N 53°33' E 009°54'2 4.1
2019-Sep-14 19:30N 53°33' E 009°58'1 1.8
2019-Sep-14 19:00N 53°32' E 009°59'0 0.3
2019-Sep-14 18:30N 53°32' E 009°59'0 0.4
2019-Sep-14 17:59N 53°33' E 009°59'0 0.0
2019-Sep-14 17:29N 53°33' E 009°59'0 0.0
2019-Sep-14 16:59N 53°33' E 009°59'0 0.0
2019-Sep-14 16:29N 53°33' E 009°59'0 0.0
2019-Sep-14 15:59N 53°33' E 009°59'0 0.0
2019-Sep-14 15:29N 53°33' E 009°59'0 0.0
2019-Sep-14 14:59N 53°33' E 009°59'0 0.0
2019-Sep-14 14:29N 53°33' E 009°59'0 0.0
2019-Sep-14 13:59N 53°33' E 009°59'0 0.0
2019-Sep-14 13:29N 53°33' E 009°59'0 0.0
2019-Sep-14 12:59N 53°33' E 009°59'0 0.0
2019-Sep-14 12:29N 53°33' E 009°59'0 0.0
2019-Sep-14 11:59N 53°33' E 009°59'0 0.0
2019-Sep-14 11:29N 53°33' E 009°59'0 0.0
2019-Sep-14 10:59N 53°33' E 009°59'0 0.0
2019-Sep-14 10:29N 53°33' E 009°59'0 0.0
2019-Sep-14 09:59N 53°33' E 009°59'0 0.0
2019-Sep-14 09:29N 53°33' E 009°59'0 0.0
2019-Sep-14 08:59N 53°33' E 009°59'0 0.0
2019-Sep-14 08:29N 53°33' E 009°59'0 0.0
2019-Sep-14 07:59N 53°33' E 009°59'0 0.0
2019-Sep-14 07:26N 53°33' E 009°59'0 0.0
2019-Sep-14 06:59N 53°33' E 009°59'0 0.0
2019-Sep-14 06:29N 53°33' E 009°59'0 0.0
2019-Sep-14 05:59N 53°33' E 009°59'0 0.0
2019-Sep-14 05:29N 53°33' E 009°59'0 0.0
2019-Sep-14 04:59N 53°33' E 009°59'0 0.0
2019-Sep-14 04:29N 53°33' E 009°59'0 0.0
2019-Sep-14 03:59N 53°33' E 009°59'0 0.0
2019-Sep-14 03:31N 53°33' E 009°59'1 1.1
2019-Sep-14 03:01N 53°33' E 009°58'4 9.0
2019-Sep-14 02:31N 53°33' E 009°50'4 8.9
2019-Sep-14 02:00N 53°34' E 009°43'5 9.4
2019-Sep-14 01:30N 53°36' E 009°36'5 9.6
2019-Sep-14 01:01N 53°40' E 009°31'3 5.9
2019-Sep-14 00:31N 53°43' E 009°29'4 7.6
2019-Sep-14 00:01N 53°45' E 009°24'4 9.0
2019-Sep-13 23:31N 53°49' E 009°22'5 9.9
2019-Sep-13 23:01N 53°52' E 009°15'4 8.1
2019-Sep-13 22:30N 53°53' E 009°08'0 0.4
2019-Sep-13 22:01N 53°54' E 009°09'1 2.3
2019-Sep-13 21:31N 53°54' E 009°10'2 4.4
2019-Sep-13 21:01N 53°56' E 009°13'4 8.3
2019-Sep-13 20:31N 53°59' E 009°17'4 8.4
2019-Sep-13 20:00N 54°03' E 009°18'4 8.5
2019-Sep-13 19:30N 54°08' E 009°20'4 8.2
2019-Sep-13 19:01N 54°10' E 009°25'4 8.3
2019-Sep-13 18:30N 54°12' E 009°32'4 8.1
2019-Sep-13 18:01N 54°14' E 009°37'3 6.2
2019-Sep-13 17:31N 54°17' E 009°39'3 6.8
2019-Sep-13 17:01N 54°20' E 009°43'4 8.1
2019-Sep-13 16:31N 54°22' E 009°49'3 6.2
2019-Sep-13 16:00N 54°21' E 009°54'3 6.5
2019-Sep-13 15:30N 54°21' E 009°60'4 7.6
2019-Sep-13 15:00N 54°22' E 010°06'2 3.1
2019-Sep-13 14:31N 54°22' E 010°08'0 0.1
2019-Sep-13 14:01N 54°22' E 010°08'1 1.3
2019-Sep-13 13:31N 54°22' E 010°10'1 2.4
2019-Sep-13 13:00N 54°23' E 010°11'0 0.0
2019-Sep-13 12:30N 54°23' E 010°11'0 0.0
2019-Sep-13 12:00N 54°23' E 010°11'0 0.0
2019-Sep-13 11:30N 54°23' E 010°11'0 0.0
2019-Sep-13 11:00N 54°23' E 010°11'0 0.0
2019-Sep-13 10:30N 54°23' E 010°11'0 0.0
2019-Sep-13 10:00N 54°23' E 010°11'0 0.0
2019-Sep-13 09:30N 54°23' E 010°11'0 0.0
2019-Sep-13 09:00N 54°23' E 010°11'0 0.1
2019-Sep-13 08:30N 54°23' E 010°11'0 0.0
2019-Sep-13 08:00N 54°23' E 010°11'0 0.1
2019-Sep-13 07:30N 54°23' E 010°11'612.7
2019-Sep-13 07:01N 54°28' E 010°15'5 9.9
2019-Sep-13 06:30N 54°31' E 010°22'612.1
2019-Sep-13 06:00N 54°34' E 010°32'611.9
2019-Sep-13 05:31N 54°35' E 010°42'815.0
2019-Sep-13 05:00N 54°35' E 010°55'816.6
2019-Sep-13 04:30N 54°36' E 011°09'817.0
2019-Sep-13 04:00N 54°33' E 011°23'917.7
2019-Sep-13 03:30N 54°29' E 011°36'917.9
2019-Sep-13 03:00N 54°26' E 011°51'917.6
2019-Sep-13 02:30N 54°27' E 012°06'3016.8
2019-Sep-13 00:44N 54°48' E 012°43'1218.2
2019-Sep-13 00:05N 54°47' E 013°04'118.3
2019-Sep-13 00:00N 54°47' E 013°06'918.1
2019-Sep-12 23:30N 54°46' E 013°22'1418.5
2019-Sep-12 22:45N 54°44' E 013°46'2118.4
2019-Sep-12 21:35N 54°38' E 014°21'1218.3
2019-Sep-12 20:55N 54°39' E 014°42'2018.5
2019-Sep-12 19:51N 54°43' E 015°16'1518.6
2019-Sep-12 19:02N 54°45' E 015°42'018.7
2019-Sep-12 19:00N 54°46' E 015°43'7018.1
2019-Sep-12 15:08N 54°57' E 017°43'1217.6
2019-Sep-12 14:26N 54°57' E 018°04'917.7
2019-Sep-12 13:54N 54°57' E 018°21'717.8
2019-Sep-12 13:30N 54°56' E 018°33'917.8
2019-Sep-12 13:00N 54°51' E 018°46'918.2
2019-Sep-12 12:30N 54°45' E 018°58'917.5
2019-Sep-12 12:00N 54°37' E 018°55'1019.0
2019-Sep-12 11:30N 54°29' E 018°45'510.9
2019-Sep-12 11:00N 54°25' E 018°39'1 1.3
2019-Sep-12 10:29N 54°24' E 018°40'0 0.0
2019-Sep-12 09:56N 54°24' E 018°40'0 0.0
2019-Sep-12 09:29N 54°24' E 018°40'0 0.0
2019-Sep-12 08:59N 54°24' E 018°40'0 0.0
2019-Sep-12 08:29N 54°24' E 018°40'0 0.0
2019-Sep-12 07:59N 54°24' E 018°40'0 0.0
2019-Sep-12 07:29N 54°24' E 018°40'0 0.0
2019-Sep-12 06:59N 54°24' E 018°40'0 0.0
2019-Sep-12 06:29N 54°24' E 018°40'0 0.0
2019-Sep-12 05:59N 54°24' E 018°40'0 0.0
2019-Sep-12 05:29N 54°24' E 018°40'0 0.0
2019-Sep-12 04:59N 54°24' E 018°40'0 0.0
2019-Sep-12 04:29N 54°24' E 018°40'0 0.0
2019-Sep-12 03:59N 54°24' E 018°40'0 0.0
2019-Sep-12 03:29N 54°24' E 018°40'0 0.0
2019-Sep-12 02:59N 54°24' E 018°40'0 0.0
2019-Sep-12 02:29N 54°24' E 018°40'0 0.0
2019-Sep-12 01:59N 54°24' E 018°40'0 0.0
2019-Sep-12 01:26N 54°24' E 018°40'0 0.0
2019-Sep-12 00:59N 54°24' E 018°40'0 0.0
2019-Sep-12 00:29N 54°24' E 018°40'0 0.0
2019-Sep-11 23:59N 54°24' E 018°40'0 0.0
2019-Sep-11 23:29N 54°24' E 018°40'0 0.0
2019-Sep-11 22:59N 54°24' E 018°40'0 0.0
2019-Sep-11 22:29N 54°24' E 018°40'0 0.0
2019-Sep-11 21:59N 54°24' E 018°40'0 0.0
2019-Sep-11 21:29N 54°24' E 018°40'0 0.0
2019-Sep-11 20:59N 54°24' E 018°40'0 0.0
2019-Sep-11 20:29N 54°24' E 018°40'0 0.0
2019-Sep-11 19:59N 54°24' E 018°40'0 0.0
2019-Sep-11 19:29N 54°24' E 018°40'0 0.0
2019-Sep-11 18:56N 54°24' E 018°40'0 0.0
2019-Sep-11 18:29N 54°24' E 018°40'0 0.0
2019-Sep-11 17:59N 54°24' E 018°40'0 0.0
2019-Sep-11 17:29N 54°24' E 018°40'0 0.0
2019-Sep-11 16:59N 54°24' E 018°40'0 0.0
2019-Sep-11 16:29N 54°24' E 018°40'0 0.0
2019-Sep-11 15:59N 54°24' E 018°40'0 0.0
2019-Sep-11 15:29N 54°24' E 018°40'0 0.0
2019-Sep-11 14:59N 54°24' E 018°40'0 0.0
2019-Sep-11 14:29N 54°24' E 018°40'0 0.0
2019-Sep-11 13:59N 54°24' E 018°40'0 0.0
2019-Sep-11 13:29N 54°24' E 018°40'0 0.0
2019-Sep-11 13:00N 54°24' E 018°40'2 3.1
2019-Sep-11 12:30N 54°26' E 018°39'4 8.0
2019-Sep-11 12:01N 54°29' E 018°43'918.2
2019-Sep-11 11:31N 54°36' E 018°53'1019.3
2019-Sep-11 11:01N 54°45' E 018°60'918.7
2019-Sep-11 10:31N 54°53' E 019°06'918.4
2019-Sep-11 10:00N 55°02' E 019°13'917.9
2019-Sep-11 09:30N 55°10' E 019°19'16714.5
2019-Sep-10 21:59N 57°40' E 021°32'94 6.1
2019-Sep-10 06:46N 56°57' E 024°06'4 1.9
2019-Sep-10 04:45N 57°01' E 024°05'2 8.2
2019-Sep-10 04:30N 57°03' E 024°04'612.7
2019-Sep-10 04:00N 57°07' E 023°55'815.7
2019-Sep-10 03:28N 57°13' E 023°44'3716.4
2019-Sep-10 01:13N 57°40' E 022°57'416.4
2019-Sep-10 00:58N 57°43' E 022°52'6912.1
2019-Sep-09 19:17N 58°34' E 021°24'617.1
2019-Sep-09 18:56N 58°40' E 021°27'917.0
2019-Sep-09 18:24N 58°49' E 021°30'1816.6
2019-Sep-09 17:17N 59°07' E 021°38'1417.0
2019-Sep-09 16:29N 59°15' E 021°59'1717.1
2019-Sep-09 15:28N 59°19' E 022°32'817.0
2019-Sep-09 15:00N 59°20' E 022°47'1017.1
2019-Sep-09 14:26N 59°22' E 023°06'717.0
2019-Sep-09 14:00N 59°24' E 023°19'816.8
2019-Sep-09 13:30N 59°26' E 023°36'816.9
2019-Sep-09 13:00N 59°27' E 023°52'917.1
2019-Sep-09 12:30N 59°29' E 024°08'817.0
2019-Sep-09 12:00N 59°30' E 024°25'714.6
2019-Sep-09 11:31N 59°31' E 024°39'510.8
2019-Sep-09 11:01N 59°27' E 024°46'0 0.7
2019-Sep-09 10:30N 59°27' E 024°46'0 0.0
2019-Sep-09 10:00N 59°27' E 024°46'  

Dump ship's entire track history